createdAt,value
2023-01-13T07:36:50.827Z,100755.74
2023-01-13T07:39:18.014Z,100751.69
2023-01-13T07:42:09.191Z,100755.58
2023-01-13T07:44:37.777Z,100753.42
2023-01-13T07:47:05.993Z,100753.92
2023-01-13T07:49:42.492Z,100750.20
2023-01-13T07:52:11.418Z,100753.88
2023-01-13T07:54:42.079Z,100753.01
2023-01-13T07:57:17.874Z,100757.14
2023-01-13T07:59:45.298Z,100757.59
2023-01-13T08:02:13.678Z,100757.41
2023-01-13T08:04:44.523Z,100759.16
2023-01-13T08:07:14.267Z,100757.02
2023-01-13T08:09:42.249Z,100756.36
2023-01-13T08:12:28.549Z,100759.94
2023-01-13T08:14:59.315Z,100751.23
2023-01-13T08:17:27.715Z,100751.09
2023-01-13T08:20:02.163Z,100746.95
2023-01-13T08:22:36.362Z,100738.64
2023-01-13T08:25:08.140Z,100737.05
2023-01-13T08:27:39.526Z,100734.74
2023-01-13T08:30:11.496Z,100731.45
2023-01-13T08:32:47.400Z,100737.11
2023-01-13T08:35:17.299Z,100740.34
2023-01-13T08:37:52.996Z,100739.22
2023-01-13T08:40:22.357Z,100735.23
2023-01-13T08:45:45.045Z,100728.89
2023-01-13T08:48:21.333Z,100728.52
2023-01-13T08:51:25.141Z,100735.20
2023-01-13T08:54:02.829Z,100731.54
2023-01-13T08:56:50.904Z,100731.92
2023-01-13T08:59:25.874Z,100721.80
2023-01-13T09:02:01.550Z,100714.90
2023-01-13T09:04:41.822Z,100713.63
2023-01-13T09:07:15.401Z,100707.23
2023-01-13T09:09:51.846Z,100709.62
2023-01-13T09:12:56.677Z,100711.42
2023-01-13T09:15:39.997Z,100714.14
2023-01-13T09:18:17.805Z,100712.28
2023-01-13T09:20:52.251Z,100709.21
2023-01-13T09:23:29.630Z,100712.77
2023-01-13T09:26:04.339Z,100710.41
2023-01-13T09:28:33.252Z,100705.65
2023-01-13T09:31:02.025Z,100708.27
2023-01-13T09:33:53.189Z,100710.48
2023-01-13T09:36:22.569Z,100707.55
2023-01-13T09:38:54.381Z,100707.89
2023-01-13T09:41:41.913Z,100710.65
2023-01-13T09:44:25.388Z,100712.08
2023-01-13T09:46:55.895Z,100700.80
2023-01-13T09:49:27.173Z,100702.66
2023-01-13T09:52:17.835Z,100700.31
2023-01-13T09:55:22.313Z,100695.56
2023-01-13T09:57:52.150Z,100692.55
2023-01-13T10:00:29.192Z,100688.05
2023-01-13T10:03:02.277Z,100689.84
2023-01-13T10:05:50.967Z,100689.84
2023-01-13T10:08:29.510Z,100685.64
2023-01-13T10:11:01.009Z,100678.75
2023-01-13T10:13:37.355Z,100672.50
2023-01-13T10:16:23.177Z,100671.92
2023-01-13T10:22:52.608Z,100677.21
2023-01-13T10:26:02.656Z,100675.66
2023-01-13T10:28:44.772Z,100676.48
2023-01-13T10:31:31.045Z,100675.77
2023-01-13T10:34:05.965Z,100670.45
2023-01-13T10:36:35.767Z,100671.90
